Main page
Satellite images 15-day forecastsClimateMarine weather Cyclones Lightning AirportsFAQ Newsletter About
Weather : Europe Africa North America South America Asia Australia-Oceania Others
Languages Contact

Tel Aviv / Ben Gurion, Israel

latitude: 32-00N, longitude: 034-54E, elevation: 40 m


METAR: LLBG 210820Z VRB01KT 9999 SCT050 26/11 Q1016 NOSIG
TAF: LLBG 210521Z 2106/2206 17004KT CAVOK BECMG 2107/2109 30010KT BECMG 2115/2117 35005KT BECMG 2119/2121 13004KT TX25/2112Z TN15/2203Z

Time: 11:41 (08:41 UTC)

Current weather observation

The report was made 21 minutes ago, at 08:20 UTC  
Wind 01 kt from variable directions
Temperature 26°C
Humidity 39%
Pressure 1016 hPa
Visibility 10 km or more
Scattered clouds at a height of 5000 ft

Change units

Forecast

The report was made 03 hours and 20 minutes ago, at 05:21 UTC  
Forecast valid from 21 at 06 UTC to 22 at 06 UTC
Wind 04 kt from the South
Visibility 10 km or more
no clouds below 1500 m and no cumulonimbus
Becoming
from 21 at 07 UTC to 21 at 09 UTC
Wind 10 kt from the West/Northwest
Becoming
from 21 at 15 UTC to 21 at 17 UTC
Wind 05 kt from the North
Becoming
from 21 at 19 UTC to 21 at 21 UTC
Wind 04 kt from the Southeast
The information on this site is subject to a disclaimer
Weather : Europe Africa North America South America Asia Australia-Oceania Others
Satellite images 15-day forecastsClimateMarine weather Cyclones Lightning AirportsFAQ Languages Contact Newsletter About